sensor_id;sensor_type;location;lat;lon;timestamp;pressure;altitude;pressure_sealevel;temperature;humidity
24610;BME280;12758;47.890;11.694;2023-05-21T00:01:18;93520.19;;;16.79;100.00
24610;BME280;12758;47.890;11.694;2023-05-21T00:03:44;93529.59;;;16.82;100.00
24610;BME280;12758;47.890;11.694;2023-05-21T00:06:11;93516.63;;;16.79;100.00
24610;BME280;12758;47.890;11.694;2023-05-21T00:08:38;93521.75;;;16.80;100.00
24610;BME280;12758;47.890;11.694;2023-05-21T00:11:04;93522.75;;;16.68;100.00
24610;BME280;12758;47.890;11.694;2023-05-21T00:13:30;93510.59;;;16.66;100.00
24610;BME280;12758;47.890;11.694;2023-05-21T00:15:56;93507.00;;;16.58;100.00
24610;BME280;12758;47.890;11.694;2023-05-21T00:18:22;93509.78;;;16.62;100.00
24610;BME280;12758;47.890;11.694;2023-05-21T00:20:49;93509.81;;;16.65;100.00
24610;BME280;12758;47.890;11.694;2023-05-21T00:23:16;93504.28;;;16.62;100.00
24610;BME280;12758;47.890;11.694;2023-05-21T00:25:43;93498.84;;;16.65;100.00
24610;BME280;12758;47.890;11.694;2023-05-21T00:28:09;93495.59;;;16.56;100.00
24610;BME280;12758;47.890;11.694;2023-05-21T00:30:35;93496.09;;;16.65;100.00
24610;BME280;12758;47.890;11.694;2023-05-21T00:33:01;93494.84;;;16.59;100.00
24610;BME280;12758;47.890;11.694;2023-05-21T00:35:28;93490.94;;;16.57;100.00
24610;BME280;12758;47.890;11.694;2023-05-21T00:37:54;93492.47;;;16.54;100.00
24610;BME280;12758;47.890;11.694;2023-05-21T00:40:21;93490.13;;;16.56;100.00
24610;BME280;12758;47.890;11.694;2023-05-21T00:42:47;93497.19;;;16.57;100.00
24610;BME280;12758;47.890;11.694;2023-05-21T00:45:14;93490.56;;;16.58;100.00
24610;BME280;12758;47.890;11.694;2023-05-21T00:47:40;93492.78;;;16.49;100.00
24610;BME280;12758;47.890;11.694;2023-05-21T00:50:07;93485.75;;;16.48;100.00
24610;BME280;12758;47.890;11.694;2023-05-21T00:52:33;93488.47;;;16.48;100.00
24610;BME280;12758;47.890;11.694;2023-05-21T00:55:07;93486.63;;;16.59;100.00
24610;BME280;12758;47.890;11.694;2023-05-21T00:57:34;93490.88;;;16.53;100.00
24610;BME280;12758;47.890;11.694;2023-05-21T01:00:03;93479.09;;;16.49;100.00
24610;BME280;12758;47.890;11.694;2023-05-21T01:02:31;93485.81;;;16.55;100.00
24610;BME280;12758;47.890;11.694;2023-05-21T01:04:59;93479.91;;;16.53;100.00
24610;BME280;12758;47.890;11.694;2023-05-21T01:07:25;93484.25;;;16.54;100.00
24610;BME280;12758;47.890;11.694;2023-05-21T01:09:51;93484.25;;;16.54;100.00
24610;BME280;12758;47.890;11.694;2023-05-21T01:12:18;93483.41;;;16.50;100.00
24610;BME280;12758;47.890;11.694;2023-05-21T01:14:46;93484.56;;;16.49;100.00
24610;BME280;12758;47.890;11.694;2023-05-21T01:17:12;93485.78;;;16.51;100.00
24610;BME280;12758;47.890;11.694;2023-05-21T01:19:39;93474.31;;;16.42;100.00
24610;BME280;12758;47.890;11.694;2023-05-21T01:22:06;93477.53;;;16.48;100.00
24610;BME280;12758;47.890;11.694;2023-05-21T01:24:34;93476.72;;;16.44;100.00
24610;BME280;12758;47.890;11.694;2023-05-21T01:27:02;93481.28;;;16.36;100.00
24610;BME280;12758;47.890;11.694;2023-05-21T01:29:30;93477.34;;;16.34;100.00
24610;BME280;12758;47.890;11.694;2023-05-21T01:32:00;93468.00;;;16.35;100.00
24610;BME280;12758;47.890;11.694;2023-05-21T01:34:31;93473.38;;;16.27;100.00
24610;BME280;12758;47.890;11.694;2023-05-21T01:37:05;93478.84;;;16.27;100.00
24610;BME280;12758;47.890;11.694;2023-05-21T01:39:35;93469.84;;;16.27;100.00
24610;BME280;12758;47.890;11.694;2023-05-21T01:42:06;93466.38;;;16.34;100.00
24610;BME280;12758;47.890;11.694;2023-05-21T01:44:33;93474.53;;;16.26;100.00
24610;BME280;12758;47.890;11.694;2023-05-21T01:47:00;93467.06;;;16.23;100.00
24610;BME280;12758;47.890;11.694;2023-05-21T01:49:27;93464.03;;;16.32;100.00
24610;BME280;12758;47.890;11.694;2023-05-21T01:51:54;93461.25;;;16.28;100.00
24610;BME280;12758;47.890;11.694;2023-05-21T01:54:20;93456.06;;;16.20;100.00
24610;BME280;12758;47.890;11.694;2023-05-21T01:56:49;93463.13;;;16.21;100.00
24610;BME280;12758;47.890;11.694;2023-05-21T01:59:15;93461.59;;;16.23;100.00
24610;BME280;12758;47.890;11.694;2023-05-21T02:01:41;93460.34;;;16.17;100.00
24610;BME280;12758;47.890;11.694;2023-05-21T02:04:08;93455.16;;;16.09;100.00
24610;BME280;12758;47.890;11.694;2023-05-21T02:06:34;93463.75;;;16.07;100.00
24610;BME280;12758;47.890;11.694;2023-05-21T02:09:01;93466.81;;;16.02;100.00
24610;BME280;12758;47.890;11.694;2023-05-21T02:11:28;93466.81;;;16.02;100.00
24610;BME280;12758;47.890;11.694;2023-05-21T02:13:55;93466.75;;;15.98;100.00
24610;BME280;12758;47.890;11.694;2023-05-21T02:16:21;93465.19;;;15.97;100.00
24610;BME280;12758;47.890;11.694;2023-05-21T02:18:47;93462.91;;;16.03;100.00
24610;BME280;12758;47.890;11.694;2023-05-21T02:21:16;93465.22;;;16.01;100.00
24610;BME280;12758;47.890;11.694;2023-05-21T02:23:42;93469.88;;;15.97;100.00
24610;BME280;12758;47.890;11.694;2023-05-21T02:26:08;93469.13;;;16.00;100.00
24610;BME280;12758;47.890;11.694;2023-05-21T02:28:34;93474.59;;;16.00;100.00
24610;BME280;12758;47.890;11.694;2023-05-21T02:31:01;93467.56;;;15.99;100.00
24610;BME280;12758;47.890;11.694;2023-05-21T02:33:27;93471.47;;;16.01;100.00
24610;BME280;12758;47.890;11.694;2023-05-21T02:35:53;93469.88;;;15.97;100.00
24610;BME280;12758;47.890;11.694;2023-05-21T02:38:19;93462.09;;;15.99;100.00
24610;BME280;12758;47.890;11.694;2023-05-21T02:40:48;93459.44;;;16.06;100.00
24610;BME280;12758;47.890;11.694;2023-05-21T02:43:14;93448.88;;;16.08;100.00
24610;BME280;12758;47.890;11.694;2023-05-21T02:45:40;93449.63;;;16.05;100.00
24610;BME280;12758;47.890;11.694;2023-05-21T02:48:07;93445.66;;;15.99;100.00
24610;BME280;12758;47.890;11.694;2023-05-21T02:50:33;93449.53;;;15.98;100.00
24610;BME280;12758;47.890;11.694;2023-05-21T02:52:59;93449.13;;;15.96;100.00
24610;BME280;12758;47.890;11.694;2023-05-21T02:55:25;93454.66;;;15.99;100.00
24610;BME280;12758;47.890;11.694;2023-05-21T02:57:51;93444.41;;;15.93;100.00
24610;BME280;12758;47.890;11.694;2023-05-21T03:00:17;93443.16;;;15.87;100.00
24610;BME280;12758;47.890;11.694;2023-05-21T03:02:43;93445.03;;;15.82;100.00
24610;BME280;12758;47.890;11.694;2023-05-21T03:05:10;93441.47;;;15.78;100.00
24610;BME280;12758;47.890;11.694;2023-05-21T03:07:36;93432.88;;;15.76;100.00
24610;BME280;12758;47.890;11.694;2023-05-21T03:10:02;93438.66;;;15.71;100.00
24610;BME280;12758;47.890;11.694;2023-05-21T03:12:28;93441.81;;;15.73;100.00
24610;BME280;12758;47.890;11.694;2023-05-21T03:14:54;93443.34;;;15.71;100.00
24610;BME280;12758;47.890;11.694;2023-05-21T03:17:20;93439.81;;;15.70;100.00
24610;BME280;12758;47.890;11.694;2023-05-21T03:19:46;93442.84;;;15.65;100.00
24610;BME280;12758;47.890;11.694;2023-05-21T03:22:14;93448.25;;;15.61;100.00
24610;BME280;12758;47.890;11.694;2023-05-21T03:24:40;93445.88;;;15.60;100.00
24610;BME280;12758;47.890;11.694;2023-05-21T03:27:06;93447.03;;;15.59;100.00
24610;BME280;12758;47.890;11.694;2023-05-21T03:29:33;93450.56;;;15.59;100.00
24610;BME280;12758;47.890;11.694;2023-05-21T03:31:59;93438.09;;;15.62;100.00
24610;BME280;12758;47.890;11.694;2023-05-21T03:34:25;93446.66;;;15.57;100.00
24610;BME280;12758;47.890;11.694;2023-05-21T03:36:51;93444.22;;;15.52;100.00
24610;BME280;12758;47.890;11.694;2023-05-21T03:39:18;93441.91;;;15.54;100.00
24610;BME280;12758;47.890;11.694;2023-05-21T03:41:44;93445.44;;;15.54;100.00
24610;BME280;12758;47.890;11.694;2023-05-21T03:44:10;93443.00;;;15.49;100.00
24610;BME280;12758;47.890;11.694;2023-05-21T03:46:36;93451.16;;;15.46;100.00
24610;BME280;12758;47.890;11.694;2023-05-21T03:49:02;93450.50;;;15.56;100.00
24610;BME280;12758;47.890;11.694;2023-05-21T03:51:28;93450.50;;;15.56;100.00
24610;BME280;12758;47.890;11.694;2023-05-21T03:53:56;93459.09;;;15.54;100.00
24610;BME280;12758;47.890;11.694;2023-05-21T03:56:23;93449.53;;;15.41;100.00
24610;BME280;12758;47.890;11.694;2023-05-21T03:58:49;93447.69;;;15.22;100.00
24610;BME280;12758;47.890;11.694;2023-05-21T04:01:15;93450.44;;;15.22;100.00
24610;BME280;12758;47.890;11.694;2023-05-21T04:03:42;93453.31;;;15.33;100.00
24610;BME280;12758;47.890;11.694;2023-05-21T04:06:08;93458.84;;;15.36;100.00
24610;BME280;12758;47.890;11.694;2023-05-21T04:08:34;93455.63;;;15.31;100.00
24610;BME280;12758;47.890;11.694;2023-05-21T04:11:01;93447.78;;;15.29;100.00
24610;BME280;12758;47.890;11.694;2023-05-21T04:13:27;93446.81;;;15.41;100.00
24610;BME280;12758;47.890;11.694;2023-05-21T04:15:53;93440.94;;;15.43;100.00
24610;BME280;12758;47.890;11.694;2023-05-21T04:18:20;93443.94;;;15.34;100.00
24610;BME280;12758;47.890;11.694;2023-05-21T04:20:48;93451.84;;;15.39;100.00
24610;BME280;12758;47.890;11.694;2023-05-21T04:23:14;93452.28;;;15.41;100.00
24610;BME280;12758;47.890;11.694;2023-05-21T04:25:40;93451.06;;;15.38;100.00
24610;BME280;12758;47.890;11.694;2023-05-21T04:28:06;93453.06;;;15.42;100.00
24610;BME280;12758;47.890;11.694;2023-05-21T04:30:33;93449.59;;;15.45;100.00
24610;BME280;12758;47.890;11.694;2023-05-21T04:33:00;93455.78;;;15.42;100.00
24610;BME280;12758;47.890;11.694;2023-05-21T04:35:26;93451.16;;;15.46;100.00
24610;BME280;12758;47.890;11.694;2023-05-21T04:37:52;93457.38;;;15.43;100.00
24610;BME280;12758;47.890;11.694;2023-05-21T04:40:19;93448.63;;;15.33;100.00
24610;BME280;12758;47.890;11.694;2023-05-21T04:42:48;93446.31;;;15.35;100.00
24610;BME280;12758;47.890;11.694;2023-05-21T04:45:15;93443.34;;;15.44;100.00
24610;BME280;12758;47.890;11.694;2023-05-21T04:47:42;93456.94;;;15.41;100.00
24610;BME280;12758;47.890;11.694;2023-05-21T04:50:09;93465.03;;;15.33;100.00
24610;BME280;12758;47.890;11.694;2023-05-21T04:52:35;93465.78;;;15.30;100.00
24610;BME280;12758;47.890;11.694;2023-05-21T04:55:01;93461.03;;;15.27;100.00
24610;BME280;12758;47.890;11.694;2023-05-21T04:57:28;93456.28;;;15.24;100.00
24610;BME280;12758;47.890;11.694;2023-05-21T04:59:54;93461.91;;;15.31;100.00
24610;BME280;12758;47.890;11.694;2023-05-21T05:02:20;93461.09;;;15.31;100.00
24610;BME280;12758;47.890;11.694;2023-05-21T05:04:47;93459.63;;;15.37;100.00
24610;BME280;12758;47.890;11.694;2023-05-21T05:07:13;93453.25;;;15.29;100.00
24610;BME280;12758;47.890;11.694;2023-05-21T05:09:39;93452.81;;;15.27;100.00
24610;BME280;12758;47.890;11.694;2023-05-21T05:12:06;93450.16;;;15.31;100.00
24610;BME280;12758;47.890;11.694;2023-05-21T05:14:32;93450.97;;;15.31;100.00
24610;BME280;12758;47.890;11.694;2023-05-21T05:16:58;93442.41;;;15.36;100.00
24610;BME280;12758;47.890;11.694;2023-05-21T05:19:24;93443.63;;;15.39;100.00
24610;BME280;12758;47.890;11.694;2023-05-21T05:21:51;93441.63;;;15.36;100.00
24610;BME280;12758;47.890;11.694;2023-05-21T05:24:17;93452.69;;;15.43;100.00
24610;BME280;12758;47.890;11.694;2023-05-21T05:26:44;93443.34;;;15.44;100.00
24610;BME280;12758;47.890;11.694;2023-05-21T05:29:10;93451.00;;;15.35;100.00
24610;BME280;12758;47.890;11.694;2023-05-21T05:31:36;93447.78;;;15.29;100.00
24610;BME280;12758;47.890;11.694;2023-05-21T05:34:02;93444.63;;;15.27;100.00
24610;BME280;12758;47.890;11.694;2023-05-21T05:36:28;93450.03;;;15.24;100.00
24610;BME280;12758;47.890;11.694;2023-05-21T05:38:55;93450.09;;;15.27;100.00
24610;BME280;12758;47.890;11.694;2023-05-21T05:41:21;93442.28;;;15.26;100.00
24610;BME280;12758;47.890;11.694;2023-05-21T05:43:47;93442.31;;;15.29;100.00
24610;BME280;12758;47.890;11.694;2023-05-21T05:46:13;93445.53;;;15.35;100.00
24610;BME280;12758;47.890;11.694;2023-05-21T05:48:39;93446.38;;;15.39;100.00
24610;BME280;12758;47.890;11.694;2023-05-21T05:51:05;93455.69;;;15.34;100.00
24610;BME280;12758;47.890;11.694;2023-05-21T05:53:31;93450.47;;;15.26;100.00
24610;BME280;12758;47.890;11.694;2023-05-21T05:55:57;93448.03;;;15.21;100.00
24610;BME280;12758;47.890;11.694;2023-05-21T05:58:24;93456.28;;;15.24;100.00
24610;BME280;12758;47.890;11.694;2023-05-21T06:00:50;93455.91;;;15.22;100.00
24610;BME280;12758;47.890;11.694;2023-05-21T06:03:17;93457.75;;;15.18;100.00
24610;BME280;12758;47.890;11.694;2023-05-21T06:05:43;93449.69;;;15.25;100.00
24610;BME280;12758;47.890;11.694;2023-05-21T06:08:09;93451.50;;;15.18;100.00
24610;BME280;12758;47.890;11.694;2023-05-21T06:10:35;93451.47;;;15.14;100.00
24610;BME280;12758;47.890;11.694;2023-05-21T06:13:02;93456.56;;;14.93;100.00
24610;BME280;12758;47.890;11.694;2023-05-21T06:15:28;93454.38;;;15.02;100.00
24610;BME280;12758;47.890;11.694;2023-05-21T06:17:54;93447.97;;;14.90;100.00
24610;BME280;12758;47.890;11.694;2023-05-21T06:20:20;93452.50;;;14.83;100.00
24610;BME280;12758;47.890;11.694;2023-05-21T06:22:46;93448.38;;;14.70;100.00
24610;BME280;12758;47.890;11.694;2023-05-21T06:25:12;93444.78;;;14.88;100.00
24610;BME280;12758;47.890;11.694;2023-05-21T06:27:38;93454.28;;;14.95;100.00
24610;BME280;12758;47.890;11.694;2023-05-21T06:30:06;93453.31;;;14.83;100.00
24610;BME280;12758;47.890;11.694;2023-05-21T06:32:33;93456.72;;;15.00;100.00
24610;BME280;12758;47.890;11.694;2023-05-21T06:34:59;93450.63;;;15.10;100.00
24610;BME280;12758;47.890;11.694;2023-05-21T06:37:25;93453.47;;;15.17;100.00
24610;BME280;12758;47.890;11.694;2023-05-21T06:39:51;93457.72;;;15.14;100.00
24610;BME280;12758;47.890;11.694;2023-05-21T06:42:17;93456.97;;;15.18;100.00
24610;BME280;12758;47.890;11.694;2023-05-21T06:44:43;93456.28;;;15.24;100.00
24610;BME280;12758;47.890;11.694;2023-05-21T06:47:09;93457.84;;;15.22;100.00
24610;BME280;12758;47.890;11.694;2023-05-21T06:49:35;93467.97;;;15.21;100.00
24610;BME280;12758;47.890;11.694;2023-05-21T06:52:01;93472.59;;;15.17;100.00
24610;BME280;12758;47.890;11.694;2023-05-21T06:54:27;93470.25;;;15.16;100.00
24610;BME280;12758;47.890;11.694;2023-05-21T06:56:53;93477.22;;;15.13;100.00
24610;BME280;12758;47.890;11.694;2023-05-21T06:59:19;93481.19;;;15.16;100.00
24610;BME280;12758;47.890;11.694;2023-05-21T07:01:45;93478.44;;;15.16;100.00
24610;BME280;12758;47.890;11.694;2023-05-21T07:04:12;93482.69;;;15.13;100.00
24610;BME280;12758;47.890;11.694;2023-05-21T07:06:38;93481.13;;;15.12;100.00
24610;BME280;12758;47.890;11.694;2023-05-21T07:09:04;93488.16;;;15.13;100.00
24610;BME280;12758;47.890;11.694;2023-05-21T07:11:30;93484.25;;;15.14;100.00
24610;BME280;12758;47.890;11.694;2023-05-21T07:13:57;93481.22;;;15.19;100.00
24610;BME280;12758;47.890;11.694;2023-05-21T07:16:24;93478.06;;;15.17;100.00
24610;BME280;12758;47.890;11.694;2023-05-21T07:18:50;93479.72;;;15.22;100.00
24610;BME280;12758;47.890;11.694;2023-05-21T07:21:17;93485.59;;;15.24;100.00
24610;BME280;12758;47.890;11.694;2023-05-21T07:23:43;93481.22;;;15.19;100.00
24610;BME280;12758;47.890;11.694;2023-05-21T07:26:09;93485.53;;;15.20;100.00
24610;BME280;12758;47.890;11.694;2023-05-21T07:28:36;93477.34;;;15.20;100.00
24610;BME280;12758;47.890;11.694;2023-05-21T07:31:02;93487.09;;;15.21;100.00
24610;BME280;12758;47.890;11.694;2023-05-21T07:33:28;93489.06;;;15.21;100.00
24610;BME280;12758;47.890;11.694;2023-05-21T07:35:54;93485.09;;;15.18;100.00
24610;BME280;12758;47.890;11.694;2023-05-21T07:38:20;93483.63;;;15.24;100.00
24610;BME280;12758;47.890;11.694;2023-05-21T07:40:46;93483.28;;;15.26;100.00
24610;BME280;12758;47.890;11.694;2023-05-21T07:43:12;93484.50;;;15.28;100.00
24610;BME280;12758;47.890;11.694;2023-05-21T07:45:38;93480.97;;;15.28;100.00
24610;BME280;12758;47.890;11.694;2023-05-21T07:48:05;93488.88;;;15.33;100.00
24610;BME280;12758;47.890;11.694;2023-05-21T07:50:31;93487.66;;;15.30;100.00
24610;BME280;12758;47.890;11.694;2023-05-21T07:52:57;93486.91;;;15.33;100.00
24610;BME280;12758;47.890;11.694;2023-05-21T07:55:23;93484.56;;;15.32;100.00
24610;BME280;12758;47.890;11.694;2023-05-21T07:57:49;93485.69;;;15.31;100.00
24610;BME280;12758;47.890;11.694;2023-05-21T08:00:16;93492.03;;;15.35;100.00
24610;BME280;12758;47.890;11.694;2023-05-21T08:02:43;93494.81;;;15.38;100.00
24610;BME280;12758;47.890;11.694;2023-05-21T08:05:09;93489.41;;;15.42;100.00
24610;BME280;12758;47.890;11.694;2023-05-21T08:07:35;93490.28;;;15.50;100.00
24610;BME280;12758;47.890;11.694;2023-05-21T08:10:02;93498.19;;;15.55;100.00
24610;BME280;12758;47.890;11.694;2023-05-21T08:12:29;93497.13;;;15.63;100.00
24610;BME280;12758;47.890;11.694;2023-05-21T08:14:56;93491.38;;;15.68;100.00
24610;BME280;12758;47.890;11.694;2023-05-21T08:17:22;93495.81;;;15.76;100.00
24610;BME280;12758;47.890;11.694;2023-05-21T08:19:48;93498.72;;;15.91;100.00
24610;BME280;12758;47.890;11.694;2023-05-21T08:22:14;93505.53;;;16.04;100.00
24610;BME280;12758;47.890;11.694;2023-05-21T08:24:40;93498.16;;;16.08;100.00
24610;BME280;12758;47.890;11.694;2023-05-21T08:27:06;93501.44;;;16.21;100.00
24610;BME280;12758;47.890;11.694;2023-05-21T08:29:33;93504.34;;;16.32;100.00
24610;BME280;12758;47.890;11.694;2023-05-21T08:31:59;93501.00;;;16.49;100.00
24610;BME280;12758;47.890;11.694;2023-05-21T08:34:25;93499.47;;;16.51;100.00
24610;BME280;12758;47.890;11.694;2023-05-21T08:36:51;93498.03;;;16.61;100.00
24610;BME280;12758;47.890;11.694;2023-05-21T08:39:18;93499.78;;;16.76;100.00
24610;BME280;12758;47.890;11.694;2023-05-21T08:41:44;93510.06;;;16.87;100.00
24610;BME280;12758;47.890;11.694;2023-05-21T08:44:14;93504.41;;;16.72;100.00
24610;BME280;12758;47.890;11.694;2023-05-21T08:46:41;93498.09;;;16.68;100.00
24610;BME280;12758;47.890;11.694;2023-05-21T08:49:11;93503.53;;;16.65;100.00
24610;BME280;12758;47.890;11.694;2023-05-21T08:51:37;93503.50;;;16.61;100.00
24610;BME280;12758;47.890;11.694;2023-05-21T08:54:04;93509.72;;;16.58;100.00
24610;BME280;12758;47.890;11.694;2023-05-21T08:56:30;93504.25;;;16.58;100.00
24610;BME280;12758;47.890;11.694;2023-05-21T08:58:56;93509.69;;;16.54;100.00
24610;BME280;12758;47.890;11.694;2023-05-21T09:01:23;93508.06;;;16.50;100.00
24610;BME280;12758;47.890;11.694;2023-05-21T09:03:51;93508.06;;;16.50;100.00
24610;BME280;12758;47.890;11.694;2023-05-21T09:06:17;93505.09;;;16.66;100.00
24610;BME280;12758;47.890;11.694;2023-05-21T09:08:44;93508.06;;;16.50;100.00
24610;BME280;12758;47.890;11.694;2023-05-21T09:11:13;93507.28;;;16.49;100.00
24610;BME280;12758;47.890;11.694;2023-05-21T09:13:39;93518.03;;;16.65;100.00
24610;BME280;12758;47.890;11.694;2023-05-21T09:16:06;93511.31;;;16.59;100.00
24610;BME280;12758;47.890;11.694;2023-05-21T09:18:34;93512.97;;;16.67;100.00
24610;BME280;12758;47.890;11.694;2023-05-21T09:21:21;93508.66;;;16.66;100.00
24610;BME280;12758;47.890;11.694;2023-05-21T09:23:52;93512.97;;;16.67;100.00
24610;BME280;12758;47.890;11.694;2023-05-21T09:26:19;93516.28;;;16.80;100.00
24610;BME280;12758;47.890;11.694;2023-05-21T09:28:46;93506.09;;;16.81;100.00
24610;BME280;12758;47.890;11.694;2023-05-21T09:31:12;93513.16;;;16.85;100.00
24610;BME280;12758;47.890;11.694;2023-05-21T09:33:44;93510.88;;;16.91;100.00
24610;BME280;12758;47.890;11.694;2023-05-21T09:36:11;93515.53;;;16.83;100.00
24610;BME280;12758;47.890;11.694;2023-05-21T09:38:37;93517.19;;;16.95;100.00
24610;BME280;12758;47.890;11.694;2023-05-21T09:41:03;93513.81;;;17.09;100.00
24610;BME280;12758;47.890;11.694;2023-05-21T09:43:30;93510.88;;;16.91;100.00
24610;BME280;12758;47.890;11.694;2023-05-21T09:45:56;93513.31;;;16.96;100.00
24610;BME280;12758;47.890;11.694;2023-05-21T09:48:31;93506.38;;;17.09;100.00
24610;BME280;12758;47.890;11.694;2023-05-21T09:51:06;93512.88;;;17.35;100.00
24610;BME280;12758;47.890;11.694;2023-05-21T09:53:33;93504.09;;;17.18;100.00
24610;BME280;12758;47.890;11.694;2023-05-21T09:55:59;93507.66;;;17.22;100.00
24610;BME280;12758;47.890;11.694;2023-05-21T09:58:25;93502.53;;;17.17;100.00
24610;BME280;12758;47.890;11.694;2023-05-21T10:00:51;93502.75;;;17.46;100.00
24610;BME280;12758;47.890;11.694;2023-05-21T10:03:18;93508.16;;;17.35;100.00
24610;BME280;12758;47.890;11.694;2023-05-21T10:05:48;93507.22;;;17.65;100.00
24610;BME280;12758;47.890;11.694;2023-05-21T10:08:14;93501.94;;;17.42;100.00
24610;BME280;12758;47.890;11.694;2023-05-21T10:10:41;93499.56;;;17.37;100.00
24610;BME280;12758;47.890;11.694;2023-05-21T10:13:09;93503.72;;;17.72;100.00
24610;BME280;12758;47.890;11.694;2023-05-21T10:15:44;93494.94;;;17.48;100.00
24610;BME280;12758;47.890;11.694;2023-05-21T10:18:10;93498.84;;;17.47;100.00
24610;BME280;12758;47.890;11.694;2023-05-21T10:20:39;93503.59;;;17.50;100.00
24610;BME280;12758;47.890;11.694;2023-05-21T10:23:05;93490.25;;;17.52;100.00
24610;BME280;12758;47.890;11.694;2023-05-21T10:25:31;93489.53;;;17.59;100.00
24610;BME280;12758;47.890;11.694;2023-05-21T10:27:58;93489.97;;;17.64;100.00
24610;BME280;12758;47.890;11.694;2023-05-21T10:30:24;93490.34;;;17.63;100.00
24610;BME280;12758;47.890;11.694;2023-05-21T10:32:50;93491.97;;;17.71;100.00
24610;BME280;12758;47.890;11.694;2023-05-21T10:35:16;93480.34;;;17.88;100.00
24610;BME280;12758;47.890;11.694;2023-05-21T10:37:43;93490.59;;;17.95;100.00
24610;BME280;12758;47.890;11.694;2023-05-21T10:40:10;93480.34;;;17.85;100.00
24610;BME280;12758;47.890;11.694;2023-05-21T10:45:55;93488.38;;;18.26;100.00
24610;BME280;12758;47.890;11.694;2023-05-21T10:48:36;93489.00;;;17.94;100.00
24610;BME280;12758;47.890;11.694;2023-05-21T10:51:13;93480.38;;;17.92;100.00
24610;BME280;12758;47.890;11.694;2023-05-21T10:53:47;93478.66;;;17.73;100.00
24610;BME280;12758;47.890;11.694;2023-05-21T10:56:22;93478.22;;;17.67;100.00
24610;BME280;12758;47.890;11.694;2023-05-21T10:59:09;93481.16;;;17.92;100.00
24610;BME280;12758;47.890;11.694;2023-05-21T11:01:39;93472.50;;;17.94;100.00
24610;BME280;12758;47.890;11.694;2023-05-21T11:04:05;93477.97;;;17.87;100.00
24610;BME280;12758;47.890;11.694;2023-05-21T11:06:31;93478.84;;;17.98;100.00
24610;BME280;12758;47.890;11.694;2023-05-21T11:09:00;93473.28;;;17.91;100.00
24610;BME280;12758;47.890;11.694;2023-05-21T11:11:39;93471.44;;;18.13;100.00
24610;BME280;12758;47.890;11.694;2023-05-21T11:14:32;93462.72;;;19.20;95.76
24610;BME280;12758;47.890;11.694;2023-05-21T11:17:09;93472.16;;;19.33;93.43
24610;BME280;12758;47.890;11.694;2023-05-21T11:19:39;93474.50;;;19.63;97.06
24610;BME280;12758;47.890;11.694;2023-05-21T11:22:07;93467.06;;;19.64;87.04
24610;BME280;12758;47.890;11.694;2023-05-21T11:24:36;93470.59;;;19.82;79.16
24610;BME280;12758;47.890;11.694;2023-05-21T11:27:02;93466.66;;;19.90;81.11
24610;BME280;12758;47.890;11.694;2023-05-21T11:29:43;93463.06;;;20.00;80.42
24610;BME280;12758;47.890;11.694;2023-05-21T11:32:11;93466.56;;;20.22;76.00
24610;BME280;12758;47.890;11.694;2023-05-21T11:34:39;93469.66;;;20.32;80.20
24610;BME280;12758;47.890;11.694;2023-05-21T11:37:30;93462.19;;;20.36;73.55
24610;BME280;12758;47.890;11.694;2023-05-21T11:40:15;93468.03;;;20.48;78.14
24610;BME280;12758;47.890;11.694;2023-05-21T11:42:42;93456.00;;;20.94;67.30
24610;BME280;12758;47.890;11.694;2023-05-21T11:45:09;93454.84;;;20.88;68.31
24610;BME280;12758;47.890;11.694;2023-05-21T11:47:36;93457.72;;;20.67;70.77
24610;BME280;12758;47.890;11.694;2023-05-21T11:50:03;93465.53;;;20.79;72.93
24610;BME280;12758;47.890;11.694;2023-05-21T11:52:29;93459.16;;;20.97;73.09
24610;BME280;12758;47.890;11.694;2023-05-21T11:54:56;93466.28;;;20.83;70.35
24610;BME280;12758;47.890;11.694;2023-05-21T11:57:25;93461.50;;;20.94;71.82
24610;BME280;12758;47.890;11.694;2023-05-21T11:59:55;93449.31;;;20.88;65.94
24610;BME280;12758;47.890;11.694;2023-05-21T12:02:25;93455.88;;;21.09;65.30
24610;BME280;12758;47.890;11.694;2023-05-21T12:04:52;93449.19;;;21.10;72.54
24610;BME280;12758;47.890;11.694;2023-05-21T12:07:18;93450.06;;;20.96;66.43
24610;BME280;12758;47.890;11.694;2023-05-21T12:09:46;93442.53;;;21.04;59.46
24610;BME280;12758;47.890;11.694;2023-05-21T12:12:13;93441.09;;;21.40;55.51
24610;BME280;12758;47.890;11.694;2023-05-21T12:14:42;93442.16;;;21.54;63.22
24610;BME280;12758;47.890;11.694;2023-05-21T12:17:08;93438.47;;;21.71;62.91
24610;BME280;12758;47.890;11.694;2023-05-21T12:19:37;93425.81;;;21.25;62.44
24610;BME280;12758;47.890;11.694;2023-05-21T12:22:05;93434.50;;;20.64;65.92
24610;BME280;12758;47.890;11.694;2023-05-21T12:24:31;93444.50;;;20.19;68.69
24610;BME280;12758;47.890;11.694;2023-05-21T12:26:58;93439.06;;;20.01;73.11
24610;BME280;12758;47.890;11.694;2023-05-21T12:29:26;93443.03;;;19.82;72.78
24610;BME280;12758;47.890;11.694;2023-05-21T12:31:52;93433.50;;;20.12;71.88
24610;BME280;12758;47.890;11.694;2023-05-21T12:34:37;93442.25;;;19.89;76.10
24610;BME280;12758;47.890;11.694;2023-05-21T12:37:06;93427.22;;;21.51;59.02
24610;BME280;12758;47.890;11.694;2023-05-21T12:39:32;93437.38;;;20.25;70.85
24610;BME280;12758;47.890;11.694;2023-05-21T12:42:02;93441.47;;;19.74;72.90
24610;BME280;12758;47.890;11.694;2023-05-21T12:44:29;93445.03;;;19.57;74.19